Flight Track Log - Related Links

Times and Time Zones

All times are in EDT time to prevent confusion due to time zone crossing. See the DAL3688 flight status page for this flight to view local times or setup timezone preferences in your user account.

Time Position Orientation Groundspeed Altitude Reporting Facility
EDT Latitude Longitude Course Direction KTS MPH feet Rate Location/Type
10:35AM 42.1994 -83.3608 90° East 168 193 1,400  Level Cleveland Center
10:36AM 42.1472 -83.3586 178° South 199 229 3,700 2,233 Climbing Cleveland Center
10:37AM 42.0725 -83.3553 178° South 267 307 6,200 2,316 Climbing Cleveland Center
10:38AM 42.2167 -82.7851 90° East  Level FlightAware Approximate
10:38AM 42.0267 -83.2556 122° Southeast 266 306 9,800  Level Cleveland Center
10:39AM 42.2167 -82.6429 90° East  Level FlightAware Approximate
10:39AM 42.0589 -83.1283 71° East 267 307 10,000  Level Cleveland Center
10:40AM 42.2167 -82.5007 90° East  Level FlightAware Approximate
10:40AM 42.0867 -83.0061 73° East 311 358 10,800  Level Cleveland Center
10:41AM 42.1181 -82.8869 70° East 321 369 13,300 2,400 Climbing Cleveland Center
10:42AM 42.1500 -82.7564 72° East 337 388 15,600 2,100 Climbing Cleveland Center
10:43AM 42.1814 -82.6258 72° East 353 406 17,500 1,650 Climbing Cleveland Center
10:44AM 42.2131 -82.4922 72° East 366 421 18,900 1,400 Climbing Cleveland Center
10:45AM 42.2172 -82.3494 88° East 377 434 20,300 1,400 Climbing Cleveland Center
10:46AM 42.2050 -82.2006 96° East 377 434 21,700 1,300 Climbing Cleveland Center
10:47AM 42.1983 -82.0658 94° East 392 451 22,900 1,150 Climbing Cleveland Center
10:48AM 42.1689 -81.9194 105° East 404 465 24,000 1,050 Climbing Cleveland Center
10:49AM 42.0825 -81.8142 138° Southeast 388 447 25,000 900 Climbing Cleveland Center
10:50AM 41.9919 -81.7089 139° Southeast 414 476 25,800 900 Climbing Cleveland Center
10:51AM 41.9033 -81.6069 139° Southeast 431 496 26,800 1,050 Climbing Cleveland Center
10:52AM 41.8042 -81.4939 140° Southeast 431 496 27,900 1,050 Climbing Cleveland Center
10:53AM 41.7133 -81.3897 139° Southeast 431 496 28,900 550 Climbing Cleveland Center
10:54AM 41.6222 -81.2858 140° Southeast 425 489 29,000 50 Climbing Cleveland Center
10:55AM 41.5289 -81.1767 139° Southeast 432 497 29,000  Level Cleveland Center
10:56AM 41.4672 -81.0347 120° Southeast 428 493 29,000  Level Cleveland Center
10:57AM 41.4114 -80.8961 118° Southeast 433 498 29,000  Level Cleveland Center
10:58AM 41.3658 -80.7767 117° Southeast 423 487 29,000  Level Cleveland Center
10:59AM 41.3117 -80.6411 118° Southeast 412 474 29,000  Level Cleveland Center
11:00AM 41.2575 -80.5058 118° Southeast 412 474 29,000  Level Cleveland Center
11:01AM 41.2053 -80.3678 117° Southeast 412 474 29,000  Level Cleveland Center
11:02AM 41.1528 -80.2300 117° Southeast 412 474 29,000  Level Cleveland Center
11:03AM 41.0958 -80.0900 118° Southeast 412 474 29,000  Level Cleveland Center
11:04AM 41.0411 -79.9500 117° Southeast 412 474 29,000  Level Cleveland Center
11:05AM 40.9861 -79.8156 118° Southeast 412 474 29,000  Level Cleveland Center
11:06AM 40.9286 -79.6761 119° Southeast 412 474 29,000  Level Cleveland Center
11:07AM 40.8733 -79.5369 118° Southeast 417 480 29,000  Level Cleveland Center
11:08AM 40.8114 -79.3869 119° Southeast 417 480 29,000 -550 Level Cleveland Center
11:09AM 40.7536 -79.2511 119° Southeast 417 480 27,900 -1,050 Descending Cleveland Center
11:10AM 40.6997 -79.1153 118° Southeast 417 480 26,900 -1,000 Descending Cleveland Center
11:11AM 40.6458 -78.9850 119° Southeast 411 473 25,900 -950 Descending Cleveland Center
11:12AM 40.5964 -78.8714 120° Southeast 406 467 25,000 -950 Descending Cleveland Center
11:13AM 40.5444 -78.7442 118° Southeast 401 461 24,000 -1,100 Descending Cleveland Center
11:14AM 40.5231 -78.5892 100° East 387 445 22,800 -1,025 Descending Cleveland Center
11:16AM 40.4906 -78.3639 101° East 373 429 21,300 -1,057 Descending New York Center
11:17AM 40.4739 -78.2311 99° East 373 429 20,000 -1,388 Descending New York Center
11:18AM 40.4550 -78.1008 101° East 373 429 18,500 -1,250 Descending New York Center
11:19AM 40.4356 -77.9758 102° East 368 423 17,500 -1,240 Descending New York Center
11:20AM 40.4197 -77.8597 100° East 345 397 16,000 -1,438 Descending New York Center
11:21AM 40.4033 -77.7489 101° East 327 376 14,600 -1,271 Descending New York Center
11:22AM 40.3897 -77.6603 101° East 311 358 13,500 -1,373 Descending New York Center
11:23AM 40.3700 -77.5358 102° East 300 345 11,900 -1,366 Descending New York Center
11:24AM 40.3564 -77.4417 101° East 300 345 10,700 -1,388 Descending New York Center
11:25AM 40.3397 -77.3311 101° East 287 330 9,100 -1,525 Descending New York Center
11:26AM 40.3339 -77.2461 95° East 271 312 7,700 -942 Descending New York Center
11:27AM 40.3492 -77.1578 77° East 232 267 7,200 -347 Descending New York Center
11:28AM 40.3586 -77.1014 78° East 192 221 7,000 -814 Descending New York Center
11:29AM 40.3258 -77.0494 130° Southeast 156 180 5,600 -1,322 Descending New York Center
11:30AM 40.2922 -77.0164 143° Southeast 163 188 4,400 -1,140 Descending New York Center
11:31AM 40.2678 -76.9625 121° Southeast 163 188 3,300 -1,082 Descending New York Center

Login

Don't have an account? Register now (free) for customized features, flight alerts, and more!